Latest Weather Observations for Mount Hope

IDN60801

Issued at 11:02 am EST Tuesday 19 June 2018 (issued every 10 minutes, with the page automatically refreshed every 10 minutes)

About weather observations | Map of weather stations | Latest weather observations for NSW | Other Formats
Station Details ID: 049136 Name: MOUNT HOPE AWS Lat: -32.83 Lon: 145.88 Height: 209.0 m
Data from the previous 72 hours. | See also: Recent months at Mount Hope
Date/Time
EST
Temp
°C
App
Temp
°C
Dew
Point
°C
Rel
Hum
%
Delta-T
°C
Wind Press
QNH
hPa
Press
MSL
hPa
Rain since
9am
mm
Dir  Spd
km/h
Gust
km/h
Spd
kts
Gust
kts
19/11:00am 10.9 - 2.5 56 3.7 - - - - - - - 0.0
19/10:30am 9.9 - 4.3 68 2.5 - - - - - - - 0.0
19/10:00am 8.5 - 4.5 76 1.8 - - - - - - - 0.0
19/09:30am 6.8 - 3.9 82 1.3 - - - - - - - 0.0
19/09:00am 5.3 - 3.6 89 0.7 - - - - - - - 0.0
19/08:30am 3.8 - 3.4 97 0.2 - - - - - - - 0.0
19/08:00am 2.4 - 2.3 99 0.0 - - - - - - - 0.0
19/07:30am 2.0 - 1.7 98 0.1 - - - - - - - 0.0
19/07:00am 2.1 - 1.8 98 0.1 - - - - - - - 0.0
19/06:30am 2.4 - 2.1 98 0.1 - - - - - - - 0.0
19/06:00am 2.5 - 2.2 98 0.1 - - - - - - - 0.0
19/05:30am 2.0 - 1.7 98 0.1 - - - - - - - 0.0
19/05:00am 2.3 - 2.0 98 0.1 - - - - - - - 0.0
19/04:30am 2.2 - 1.6 96 0.2 - - - - - - - 0.0
19/04:00am 2.9 - 2.2 95 0.3 - - - - - - - 0.0
19/03:30am 3.9 - 2.7 92 0.5 - - - - - - - 0.0
19/03:00am 5.0 - 3.5 90 0.6 - - - - - - - 0.0
19/02:30am 5.7 - 3.7 87 0.9 - - - - - - - 0.0
19/02:00am 6.4 - 3.7 83 1.2 - - - - - - - 0.0
19/01:30am 7.5 - 4.1 79 1.5 - - - - - - - 0.0
19/01:00am 7.6 - 4.0 78 1.6 - - - - - - - 0.0
19/12:30am 6.4 - 4.4 87 0.9 - - - - - - - 0.0
19/12:00am 5.6 - 3.8 88 0.8 - - - - - - - 0.0
 
Date/Time
EST
Temp
°C
App
Temp
°C
Dew
Point
°C
Rel
Hum
%
Delta-T
°C
Wind Press
QNH
hPa
Press
MSL
hPa
Rain since
9am
mm
Dir  Spd
km/h
Gust
km/h
Spd
kts
Gust
kts
18/11:30pm 5.7 - 4.0 89 0.7 - - - - - - - 0.0
18/11:00pm 5.5 - 3.3 86 0.9 - - - - - - - 0.0
18/10:30pm 7.3 - 4.4 82 1.3 - - - - - - - 0.0
18/10:00pm 7.6 - 4.4 80 1.4 - - - - - - - 0.0
18/09:30pm 7.8 - 4.4 79 1.5 - - - - - - - 0.0
18/09:00pm 8.3 - 4.5 77 1.7 - - - - - - - 0.0
18/08:30pm 8.5 - 4.5 76 1.8 - - - - - - - 0.0
18/08:00pm 8.9 - 4.5 74 2.0 - - - - - - - 0.0
18/07:30pm 9.1 - 4.5 73 2.1 - - - - - - - 0.0
18/07:00pm 8.8 - 4.4 74 2.0 - - - - - - - 0.0
18/06:30pm 9.1 - 4.3 72 2.1 - - - - - - - 0.0
18/06:00pm 9.8 - 4.6 70 2.3 - - - - - - - 0.0
18/05:30pm 10.6 - 4.5 66 2.8 - - - - - - - 0.0
18/05:00pm 11.3 - 4.7 64 3.0 - - - - - - - 0.0
18/04:30pm 12.1 - 4.3 59 3.6 - - - - - - - 0.0
18/04:00pm 12.6 - 4.6 58 3.7 - - - - - - - 0.0
18/03:30pm 12.8 - 4.8 58 3.7 - - - - - - - 0.0
18/03:00pm 12.5 - 5.2 61 3.4 - - - - - - - 0.0
18/02:30pm 12.3 - 5.2 62 3.3 - - - - - - - 0.0
18/02:00pm 11.9 - 5.1 63 3.2 - - - - - - - 0.0
18/01:30pm 11.4 - 5.7 68 2.7 - - - - - - - 0.0
18/01:00pm 10.2 - 5.4 72 2.2 - - - - - - - 0.0
18/12:30pm 9.4 - 5.6 77 1.7 - - - - - - - 0.0
18/12:00pm 8.8 - 5.4 79 1.6 - - - - - - - 0.0
18/11:30am 8.0 - 5.3 83 1.2 - - - - - - - 0.0
18/11:00am 7.3 - 5.3 87 0.9 - - - - - - - 0.0
18/10:30am 6.5 - 5.1 91 0.6 - - - - - - - 0.0
18/10:00am 6.0 - 4.8 92 0.5 - - - - - - - 0.0
18/09:30am 5.5 - 4.5 93 0.4 - - - - - - - 0.0
18/09:00am 5.3 - 4.3 93 0.4 - - - - - - - 0.2
18/08:30am 5.4 - 4.7 95 0.3 - - - - - - - 0.2
18/08:00am 5.1 - 4.2 94 0.4 - - - - - - - 0.2
18/07:30am 5.2 - 4.3 94 0.4 - - - - - - - 0.2
18/07:00am 5.1 - 4.2 94 0.4 - - - - - - - 0.2
18/06:30am 5.1 - 4.2 94 0.4 - - - - - - - 0.2
18/06:00am 5.1 - 4.2 94 0.4 - - - - - - - 0.2
18/05:30am 5.3 - 4.4 94 0.4 - - - - - - - 0.2
18/05:00am 5.6 - 4.6 93 0.4 - - - - - - - 0.2
18/04:30am 5.6 - 4.6 93 0.4 - - - - - - - 0.2
18/04:00am 5.7 - 4.5 92 0.5 - - - - - - - 0.2
18/03:30am 6.2 - 4.7 90 0.7 - - - - - - - 0.2
18/03:00am 6.7 - 4.9 88 0.8 - - - - - - - 0.2
18/02:30am 7.1 - 4.9 86 1.0 - - - - - - - 0.2
18/02:00am 7.4 - 4.9 84 1.1 - - - - - - - 0.2
18/01:30am 8.1 - 5.0 81 1.4 - - - - - - - 0.2
18/01:00am 8.8 - 5.2 78 1.6 - - - - - - - 0.2
18/12:30am 9.2 - 5.2 76 1.8 - - - - - - - 0.2
18/12:00am 9.4 - 5.2 75 1.9 - - - - - - - 0.2
 
Date/Time
EST
Temp
°C
App
Temp
°C
Dew
Point
°C
Rel
Hum
%
Delta-T
°C
Wind Press
QNH
hPa
Press
MSL
hPa
Rain since
9am
mm
Dir  Spd
km/h
Gust
km/h
Spd
kts
Gust
kts
17/11:30pm 9.2 - 5.6 78 1.7 - - - - - - - 0.2
17/11:00pm 9.4 - 5.6 77 1.7 - - - - - - - 0.2
17/10:30pm 9.7 - 5.1 73 2.1 - - - - - - - 0.0
17/10:00pm 10.2 - 4.8 69 2.5 - - - - - - - 0.0
17/09:30pm 10.2 - 4.8 69 2.5 - - - - - - - 0.0
17/09:00pm 10.2 - 4.8 69 2.5 - - - - - - - 0.0
17/08:30pm 10.1 - 4.7 69 2.5 - - - - - - - 0.0
17/08:00pm 9.9 - 5.1 72 2.2 - - - - - - - 0.0
17/07:30pm 9.3 - 5.7 78 1.7 - - - - - - - 0.0
17/07:00pm 9.7 - 5.3 74 2.0 - - - - - - - 0.0
17/06:30pm 9.7 - 5.1 73 2.1 - - - - - - - 0.0
17/06:00pm 9.4 - 5.6 77 1.7 - - - - - - - 0.0
17/05:30pm 10.1 - 4.9 70 2.4 - - - - - - - 0.0
17/05:00pm 9.9 - 5.5 74 2.0 - - - - - - - 0.0
17/04:30pm 10.3 - 5.3 71 2.3 - - - - - - - 0.0
17/04:00pm 11.0 - 4.7 65 2.9 - - - - - - - 0.0
17/03:30pm 11.0 - 5.1 67 2.7 - - - - - - - 0.0
17/03:00pm 10.6 - 4.9 68 2.6 - - - - - - - 0.0
17/02:30pm 10.4 - 4.8 68 2.6 - - - - - - - 0.0
17/02:00pm 9.9 - 5.3 73 2.1 - - - - - - - 0.0
17/01:30pm 9.3 - 5.1 75 1.9 - - - - - - - 0.0
17/01:00pm 8.7 - 4.7 76 1.8 - - - - - - - 0.0
17/12:30pm 8.3 - 4.9 79 1.5 - - - - - - - 0.0
17/12:00pm 7.8 - 4.6 80 1.4 - - - - - - - 0.0
17/11:30am 7.4 - 4.5 82 1.3 - - - - - - - 0.0
17/11:00am 7.1 - 4.4 83 1.2 - - - - - - - 0.0
17/10:30am 6.8 - 4.3 84 1.1 - - - - - - - 0.0
17/10:00am 6.3 - 4.0 85 1.0 - - - - - - - 0.0
17/09:30am 5.8 - 4.0 88 0.8 - - - - - - - 0.0
17/09:00am 5.2 - 3.5 89 0.7 - - - - - - - 1.6
17/08:30am 5.2 - 3.5 89 0.7 - - - - - - - 1.6
17/08:00am 5.3 - 3.6 89 0.7 - - - - - - - 1.6
17/07:30am 5.2 - 3.9 91 0.6 - - - - - - - 1.6
17/07:00am 5.0 - 4.1 94 0.4 - - - - - - - 1.6
17/06:30am 5.0 - 4.1 94 0.4 - - - - - - - 1.4
17/06:00am 5.0 - 4.0 93 0.4 - - - - - - - 1.4
17/05:30am 5.2 - 3.7 90 0.6 - - - - - - - 1.4
17/05:00am 5.2 - 3.5 89 0.7 - - - - - - - 1.4
17/04:30am 5.9 - 3.6 85 1.0 - - - - - - - 1.4
17/04:00am 6.3 - 3.3 81 1.3 - - - - - - - 1.4
17/03:30am 5.9 - 5.0 94 0.4 - - - - - - - 1.4
17/03:00am 5.7 - 4.8 94 0.4 - - - - - - - 1.2
17/02:30am 5.8 - 4.4 91 0.6 - - - - - - - 1.2
17/02:00am 6.4 - 3.7 83 1.2 - - - - - - - 1.2
17/01:30am 6.1 - 3.6 84 1.1 - - - - - - - 1.2
17/01:00am 6.0 - 3.3 83 1.1 - - - - - - - 1.2
17/12:30am 5.9 - 3.4 84 1.1 - - - - - - - 1.2
17/12:00am 5.6 - 3.3 85 1.0 - - - - - - - 1.2
 
Date/Time
EST
Temp
°C
App
Temp
°C
Dew
Point
°C
Rel
Hum
%
Delta-T
°C
Wind Press
QNH
hPa
Press
MSL
hPa
Rain since
9am
mm
Dir  Spd
km/h
Gust
km/h
Spd
kts
Gust
kts
16/11:30pm 5.3 - 3.3 87 0.8 - - - - - - - 1.2
16/11:00pm 4.6 - 4.0 96 0.3 - - - - - - - 1.2
16/10:30pm 2.7 - 2.1 96 0.2 - - - - - - - 1.2
16/10:00pm 3.0 - 2.1 94 0.4 - - - - - - - 1.2
16/09:30pm 4.0 - 3.1 94 0.4 - - - - - - - 1.2
16/09:00pm 3.9 - 3.0 94 0.4 - - - - - - - 1.2
16/08:30pm 4.7 - 3.4 91 0.5 - - - - - - - 1.2
16/08:00pm 5.8 - 4.1 89 0.7 - - - - - - - 1.2
16/07:30pm 7.1 - 4.9 86 1.0 - - - - - - - 1.2
16/07:00pm 7.5 - 5.8 89 0.8 - - - - - - - 1.2
16/06:30pm 7.2 - 5.8 91 0.6 - - - - - - - 1.0
16/06:00pm 8.2 - 5.7 84 1.1 - - - - - - - 1.0
16/05:30pm 9.2 - 5.8 79 1.6 - - - - - - - 0.4
16/05:00pm 9.7 - 5.5 75 1.9 - - - - - - - 0.4
16/04:30pm 10.8 - 4.7 66 2.8 - - - - - - - 0.4
16/04:00pm 11.9 - 5.3 64 3.1 - - - - - - - 0.4
16/03:30pm 11.9 - 6.0 67 2.8 - - - - - - - 0.4
16/03:00pm 10.9 - 6.6 75 2.0 - - - - - - - 0.4
16/02:30pm 11.1 - 6.8 75 2.1 - - - - - - - 0.2
16/02:00pm 9.8 - 7.7 87 1.0 - - - - - - - 0.2
16/01:30pm 12.9 - 3.0 51 4.4 - - - - - - - 0.0
16/01:00pm 13.1 - 2.6 49 4.7 - - - - - - - 0.0
16/12:30pm 14.4 - 3.5 48 5.0 - - - - - - - 0.0
16/12:00pm 12.7 - 4.4 57 3.8 - - - - - - - 0.0
16/11:30am 12.8 - 4.8 58 3.7 - - - - - - - 0.0

Other Formats:

Comma delimited format used in spreadsheet applications
http://www.bom.gov.au/fwo/IDN60801/IDN60801.95682.axf

JavaScript Object Notation format (JSON) in row-major order
http://www.bom.gov.au/fwo/IDN60801/IDN60801.95682.json